Hlavní strana
METAR-TAF:

METAR-TAF

Letiště :

Poplar Bluff Municipal Airport

Poplar Bluff, Missouri, Spojené státy americké

zeměpisná šířka: 36-46-14N, zeměpisná délka: 090-19-20W, výška: 100 m

Aktuální stav počasí

Zpráva byla vytvořena před 23 minutami, v 01:53 UTC
Severní vítr 9 kt
Teplota 5°C
Vlhkost vzduchu 81%
Tlak 1016 hPa
Viditelnost: 16.1 km
Zataženo ve výšce 1400 ft

METAR: KPOF 260153Z AUTO 35009KT 10SM OVC014 05/02 A3000 RMK AO2 SLP163 T00500017

Čas: 20:16 (02:16 UTC)


TAF: chybějící

Stav a předpovědi počasí z více než 4 000 letišť (zprávy METAR a TAF).

Červené a žluté tečky na mapě představují dostupné meteorologické stanice.

Když kurzor umístíte na tečku, zobrazí se název stanice.

Pak kliknutím zobrazíte stav a předpověď počasí.

Chcete-li změnit mapu, kliknutím na zelené tlačítko se znaménkem +mapu přiblížíte, kliknutím na zelené tlačítko se znaménkem – mapu oddálíte a kliknutím na zelené šipky přejdete na sousední mapy.


METAR-TAF: